Time;durP1;ratioP1;P1;durP2;ratioP2;P2;SDS_P1;SDS_P2;PMS_P1;PMS_P2;Temp;Humidity;BMP_temperature;BMP_pressure;BME280_temperature;BME280_humidity;BME280_pressure;Samples;Min_cycle;Max_cycle;Signal;HPM_P1;HPM_P2
2022/06/01 00:01:35;;;;;;;0.82;0.70;;;;;;;7.67;78.39;100332.69;4917087;28;20034;-72
2022/06/01 00:04:04;;;;;;;2.42;0.75;;;;;;;7.64;78.96;100327.75;4932314;28;20024;-71
2022/06/01 00:06:33;;;;;;;5.05;1.00;;;;;;;7.50;79.57;100321.81;4893408;29;20123;-74
2022/06/01 00:09:00;;;;;;;4.03;1.13;;;;;;;7.49;79.49;100337.31;4908466;29;20056;-75
2022/06/01 00:11:32;;;;;;;1.00;0.70;;;;;;;7.36;78.79;100321.31;4897312;29;20032;-74
2022/06/01 00:14:00;;;;;;;5.57;1.35;;;;;;;7.29;79.53;100326.09;4908645;29;20040;-74
2022/06/01 00:16:27;;;;;;;2.72;1.23;;;;;;;7.27;79.45;100325.50;4905035;29;20044;-74
2022/06/01 00:18:53;;;;;;;1.58;0.90;;;;;;;7.22;79.48;100320.00;4909092;29;20016;-74
2022/06/01 00:21:22;;;;;;;4.30;1.25;;;;;;;7.26;79.90;100337.47;4875147;29;20040;-73
2022/06/01 00:23:48;;;;;;;5.43;1.35;;;;;;;7.26;80.63;100337.47;4885263;29;20029;-74
2022/06/01 00:26:18;;;;;;;5.28;1.15;;;;;;;7.22;81.27;100333.59;4912766;29;20108;-74
2022/06/01 00:28:44;;;;;;;2.90;1.40;;;;;;;7.18;80.12;100335.16;4880237;29;20037;-74
2022/06/01 00:31:13;;;;;;;5.35;1.08;;;;;;;7.11;80.89;100348.88;4901131;29;20037;-73
2022/06/01 00:33:39;;;;;;;2.17;1.30;;;;;;;6.98;81.40;100363.63;4920015;29;20043;-74
2022/06/01 00:36:07;;;;;;;2.85;1.20;;;;;;;6.87;81.16;100345.47;4891761;29;20043;-75
2022/06/01 00:38:39;;;;;;;2.15;1.30;;;;;;;6.73;81.80;100348.50;4898334;29;20080;-74
2022/06/01 00:41:06;;;;;;;2.88;1.27;;;;;;;6.63;81.80;100348.28;4911441;29;20080;-73
2022/06/01 00:43:44;;;;;;;1.90;1.17;;;;;;;6.53;82.89;100339.94;4888335;29;20041;-73
2022/06/01 00:46:12;;;;;;;2.15;1.20;;;;;;;6.51;82.84;100347.50;4908243;29;20053;-72
2022/06/01 00:48:52;;;;;;;4.50;1.95;;;;;;;6.34;82.58;100347.41;4913167;29;20471;-74
2022/06/01 00:51:25;;;;;;;2.65;1.85;;;;;;;6.31;82.74;100354.16;4904547;29;20036;-75
2022/06/01 00:53:56;;;;;;;2.63;2.00;;;;;;;6.26;83.62;100345.91;4890914;29;20395;-75
2022/06/01 00:56:50;;;;;;;6.40;2.65;;;;;;;6.27;83.55;100339.41;4896207;29;20059;-75
2022/06/01 00:59:33;;;;;;;4.80;2.58;;;;;;;6.20;83.84;100331.38;4922663;29;20382;-74
2022/06/01 01:02:06;;;;;;;6.18;3.00;;;;;;;6.26;84.76;100351.31;4895590;29;20437;-74
2022/06/01 01:04:44;;;;;;;7.43;3.78;;;;;;;6.30;86.00;100352.50;4908217;29;20024;-73
2022/06/01 01:07:12;;;;;;;5.22;3.42;;;;;;;6.28;85.77;100343.78;4907905;29;20032;-74
2022/06/01 01:09:41;;;;;;;5.53;3.30;;;;;;;6.23;85.00;100349.91;4908266;29;20063;-74
2022/06/01 01:12:11;;;;;;;4.05;2.80;;;;;;;6.20;85.57;100352.28;4897505;29;20037;-74
2022/06/01 01:14:41;;;;;;;5.00;2.65;;;;;;;6.16;86.56;100345.69;4887685;29;20048;-76
2022/06/01 01:17:14;;;;;;;7.78;3.35;;;;;;;6.19;85.87;100345.19;4919360;29;20027;-74
2022/06/01 01:20:02;;;;;;;3.17;2.33;;;;;;;6.14;85.55;100350.53;4902646;29;20042;-74
2022/06/01 01:22:57;;;;;;;4.40;2.53;;;;;;;6.10;85.55;100353.72;4929008;29;20027;-75
2022/06/01 01:25:23;;;;;;;3.03;2.00;;;;;;;6.04;85.68;100348.41;4889229;29;20052;-74
2022/06/01 01:27:51;;;;;;;4.68;2.40;;;;;;;6.02;86.34;100335.09;4897339;29;20032;-74
2022/06/01 01:30:37;;;;;;;6.90;1.83;;;;;;;6.02;86.49;100340.50;4921019;29;20056;-74
2022/06/01 01:33:13;;;;;;;3.67;1.80;;;;;;;6.10;86.70;100342.03;4912193;29;20098;-75
2022/06/01 01:35:41;;;;;;;6.28;1.95;;;;;;;6.16;86.62;100348.41;4910218;29;20194;-74
2022/06/01 01:38:18;;;;;;;4.55;2.00;;;;;;;6.10;86.12;100332.00;4889523;29;20044;-74
2022/06/01 01:40:44;;;;;;;1.85;1.40;;;;;;;6.10;86.38;100333.88;4910247;29;20035;-76
2022/06/01 01:43:11;;;;;;;3.08;1.40;;;;;;;6.17;86.72;100339.19;4876039;29;20728;-74
2022/06/01 01:45:37;;;;;;;4.78;1.48;;;;;;;6.16;86.75;100329.38;4913727;29;20040;-75
2022/06/01 01:48:04;;;;;;;1.67;1.48;;;;;;;6.10;86.35;100315.72;4888723;29;20040;-75
2022/06/01 01:50:34;;;;;;;5.20;1.63;;;;;;;6.21;85.69;100324.91;4902003;29;20446;-73
2022/06/01 01:53:03;;;;;;;2.25;1.30;;;;;;;6.29;85.47;100327.25;4917304;29;20040;-73
2022/06/01 01:56:05;;;;;;;3.67;1.42;;;;;;;6.33;86.24;100324.88;4917350;29;20118;-72
2022/06/01 01:59:20;;;;;;;5.43;1.48;;;;;;;6.40;86.26;100325.56;4913035;29;20032;-73
2022/06/01 02:02:08;;;;;;;7.75;2.17;;;;;;;6.45;86.39;100333.81;4873824;29;20044;-73
2022/06/01 02:07:59;;;;;;;3.65;1.55;;;;;;;6.33;85.80;100324.06;4903260;29;20039;-72
2022/06/01 02:13:15;;;;;;;6.50;1.70;;;;;;;6.25;86.89;100330.66;4958980;23;20056;-73
2022/06/01 02:15:44;;;;;;;4.88;1.92;;;;;;;6.24;87.05;100332.56;4915373;29;20040;-74
2022/06/01 02:18:21;;;;;;;2.78;1.88;;;;;;;6.21;87.15;100322.19;4931577;29;20040;-76
2022/06/01 02:20:58;;;;;;;3.63;1.52;;;;;;;6.14;87.92;100321.50;4922151;29;20084;-75
2022/06/01 02:23:26;;;;;;;2.70;1.63;;;;;;;6.13;87.54;100324.44;4928960;29;20063;-73
2022/06/01 02:25:53;;;;;;;4.65;1.52;;;;;;;6.02;86.76;100307.13;4903168;29;20044;-72
2022/06/01 02:28:20;;;;;;;3.40;1.60;;;;;;;6.03;87.18;100323.16;4913019;29;20051;-75
2022/06/01 02:30:48;;;;;;;9.18;1.85;;;;;;;5.96;86.81;100325.16;4930657;29;20043;-74
2022/06/01 02:33:23;;;;;;;3.20;1.63;;;;;;;5.95;87.49;100329.72;4921020;29;20044;-73
2022/06/01 02:35:58;;;;;;;5.82;1.80;;;;;;;5.87;87.78;100321.13;4933238;29;20051;-74
2022/06/01 02:38:47;;;;;;;5.87;1.67;;;;;;;5.89;87.65;100321.72;4929401;29;20028;-75
2022/06/01 02:44:02;;;;;;;5.10;1.58;;;;;;;5.85;88.01;100318.66;4945332;29;20059;-74
2022/06/01 02:46:30;;;;;;;3.35;1.80;;;;;;;5.88;88.04;100322.78;4929753;29;20019;-73
2022/06/01 02:48:57;;;;;;;3.63;1.65;;;;;;;5.85;87.67;100320.56;4938972;29;20047;-75
2022/06/01 02:51:26;;;;;;;3.83;1.83;;;;;;;5.90;87.99;100320.69;4939204;29;20109;-74
2022/06/01 02:53:55;;;;;;;4.15;1.77;;;;;;;5.88;87.87;100320.06;4930243;29;20046;-74
2022/06/01 02:56:24;;;;;;;4.28;1.98;;;;;;;5.85;88.90;100312.41;4917486;29;20024;-75
2022/06/01 02:58:56;;;;;;;3.83;1.80;;;;;;;5.84;89.22;100305.31;4950533;29;20123;-73
2022/06/01 03:01:22;;;;;;;2.95;1.70;;;;;;;5.85;88.78;100310.50;4918838;29;20040;-74
2022/06/01 03:03:48;;;;;;;4.03;1.45;;;;;;;5.86;89.16;100311.34;4941201;29;20100;-74
2022/06/01 03:06:15;;;;;;;4.63;1.55;;;;;;;5.81;89.09;100305.81;4945201;29;20141;-75
2022/06/01 03:08:42;;;;;;;7.75;1.90;;;;;;;5.77;89.74;100311.72;4912781;29;20031;-74
2022/06/01 03:11:08;;;;;;;4.35;1.50;;;;;;;5.64;89.66;100295.66;4947856;28;20039;-74
2022/06/01 03:13:34;;;;;;;4.97;1.92;;;;;;;5.73;89.47;100310.53;4920296;29;20044;-74
2022/06/01 03:16:00;;;;;;;3.20;1.60;;;;;;;5.68;89.68;100305.00;4898816;29;20032;-75
2022/06/01 03:18:27;;;;;;;6.05;2.10;;;;;;;5.66;90.40;100304.38;4907003;29;20048;-74
2022/06/01 03:20:52;;;;;;;4.05;1.70;;;;;;;5.63;89.86;100310.28;4923445;29;20398;-75
2022/06/01 03:23:19;;;;;;;3.17;1.58;;;;;;;5.61;90.04;100309.72;4928057;29;20047;-74
2022/06/01 03:25:48;;;;;;;3.33;1.90;;;;;;;5.47;90.22;100292.00;4920750;29;20023;-75
2022/06/01 03:28:15;;;;;;;2.58;1.48;;;;;;;5.49;90.26;100311.56;4911244;29;20074;-75
2022/06/01 03:30:43;;;;;;;5.78;1.83;;;;;;;5.45;90.52;100302.25;4922592;29;20040;-75
2022/06/01 03:33:10;;;;;;;3.90;1.90;;;;;;;5.39;90.49;100304.84;4913686;29;20023;-74
2022/06/01 03:35:38;;;;;;;2.10;1.38;;;;;;;5.35;90.93;100303.66;4910185;29;20047;-75
2022/06/01 03:38:04;;;;;;;2.92;1.85;;;;;;;5.39;90.17;100314.91;4903533;29;20042;-75
2022/06/01 03:40:34;;;;;;;3.65;1.73;;;;;;;5.32;91.01;100309.56;4912325;29;20016;-74
2022/06/01 03:43:03;;;;;;;3.70;1.60;;;;;;;5.27;90.25;100306.75;4939815;29;20032;-75
2022/06/01 03:48:17;;;;;;;3.85;1.80;;;;;;;5.26;91.33;100305.09;4926872;29;20127;-74
2022/06/01 03:50:44;;;;;;;1.55;1.20;;;;;;;5.21;90.47;100296.81;4909202;29;20110;-75
2022/06/01 03:53:11;;;;;;;1.73;1.10;;;;;;;5.22;90.93;100290.34;4899194;29;20028;-74
2022/06/01 03:58:30;;;;;;;3.65;0.90;;;;;;;5.29;90.41;100310.03;3140842;27;20083;-75
2022/06/01 04:00:56;;;;;;;2.22;1.30;;;;;;;5.30;90.19;100316.28;4896941;29;20007;-73
2022/06/01 04:03:22;;;;;;;1.88;1.10;;;;;;;5.28;90.29;100313.81;4880699;29;20435;-73
2022/06/01 04:05:48;;;;;;;1.45;0.90;;;;;;;5.26;90.58;100310.50;4918000;29;20040;-75
2022/06/01 04:08:14;;;;;;;1.77;1.17;;;;;;;5.32;89.66;100311.47;4923914;29;20476;-75
2022/06/01 04:10:43;;;;;;;4.40;1.58;;;;;;;5.33;90.04;100316.66;4898325;29;20052;-75
2022/06/01 04:13:11;;;;;;;4.07;1.58;;;;;;;5.29;89.72;100307.31;4924507;29;20032;-75
2022/06/01 04:15:37;;;;;;;1.83;1.50;;;;;;;5.34;89.70;100312.84;4925147;29;20056;-75
2022/06/01 04:18:03;;;;;;;1.25;1.10;;;;;;;5.42;89.69;100326.09;4937219;29;20030;-73
2022/06/01 04:20:29;;;;;;;2.17;1.50;;;;;;;5.46;89.53;100321.03;4933477;29;20038;-74
2022/06/01 04:22:55;;;;;;;3.28;1.60;;;;;;;5.49;89.83;100330.56;4885578;29;20051;-74
2022/06/01 04:25:23;;;;;;;3.25;1.98;;;;;;;5.47;89.22;100324.56;4919380;29;20159;-74
2022/06/01 04:27:49;;;;;;;4.80;1.60;;;;;;;5.49;89.96;100319.72;4913050;29;20005;-74
2022/06/01 04:30:16;;;;;;;3.70;1.48;;;;;;;5.56;89.02;100325.84;4909153;29;20129;-73
2022/06/01 04:32:44;;;;;;;1.40;1.30;;;;;;;5.63;88.88;100326.56;4931893;29;20027;-74
2022/06/01 04:35:11;;;;;;;4.43;1.73;;;;;;;5.69;89.47;100325.63;4932367;29;20102;-75
2022/06/01 04:37:37;;;;;;;3.80;1.70;;;;;;;5.72;89.44;100317.03;4945174;29;20035;-73
2022/06/01 04:40:04;;;;;;;4.15;1.55;;;;;;;5.83;88.57;100325.41;4946153;29;20078;-75
2022/06/01 04:42:30;;;;;;;2.65;1.55;;;;;;;5.80;87.81;100323.13;4917068;29;20035;-75
2022/06/01 04:44:58;;;;;;;2.83;1.80;;;;;;;5.81;87.59;100322.94;4929775;29;20482;-76
2022/06/01 04:47:24;;;;;;;7.63;2.28;;;;;;;5.90;87.58;100331.53;4912734;29;20039;-74
2022/06/01 04:49:50;;;;;;;2.53;1.95;;;;;;;5.93;88.71;100328.34;4912168;29;20126;-74
2022/06/01 04:52:15;;;;;;;3.65;2.38;;;;;;;6.09;87.76;100335.78;4929918;29;20527;-73
2022/06/01 04:54:41;;;;;;;4.45;2.05;;;;;;;6.20;87.18;100334.09;4912774;29;20032;-73
2022/06/01 04:57:09;;;;;;;4.97;2.10;;;;;;;6.28;88.04;100336.44;4926838;28;20058;-73
2022/06/01 04:59:35;;;;;;;3.55;2.63;;;;;;;6.27;88.04;100331.25;4923779;29;20023;-74
2022/06/01 05:02:01;;;;;;;7.13;2.40;;;;;;;6.28;88.56;100346.50;4898914;29;20581;-74
2022/06/01 05:04:29;;;;;;;4.28;2.50;;;;;;;6.23;88.50;100343.66;4927581;29;20087;-72
2022/06/01 05:06:58;;;;;;;3.45;2.42;;;;;;;6.19;87.70;100339.78;4907133;29;20032;-73
2022/06/01 05:09:24;;;;;;;4.25;2.33;;;;;;;6.17;88.61;100336.47;4923024;29;20028;-74
2022/06/01 05:11:51;;;;;;;8.20;2.05;;;;;;;6.10;88.28;100337.44;4902712;29;20107;-74
2022/06/01 05:14:19;;;;;;;7.20;2.72;;;;;;;6.22;88.98;100355.59;4924054;29;20023;-74
2022/06/01 05:16:52;;;;;;;4.93;3.30;;;;;;;6.15;90.08;100338.59;4911937;29;20035;-73
2022/06/01 05:19:18;;;;;;;7.88;3.00;;;;;;;6.21;90.03;100354.75;4913705;29;20031;-74
2022/06/01 05:21:45;;;;;;;3.92;2.78;;;;;;;6.11;90.10;100333.63;4921644;29;20043;-74
2022/06/01 05:24:11;;;;;;;8.13;2.92;;;;;;;6.19;89.42;100345.19;4909290;29;20028;-72
2022/06/01 05:26:38;;;;;;;4.90;2.70;;;;;;;6.17;90.89;100341.91;4920528;29;20031;-73
2022/06/01 05:29:07;;;;;;;2.95;2.60;;;;;;;6.20;90.37;100341.44;4920268;29;20557;-74
2022/06/01 05:31:33;;;;;;;3.55;2.40;;;;;;;6.26;90.01;100340.47;4918602;29;20039;-75
2022/06/01 05:33:58;;;;;;;5.78;3.17;;;;;;;6.42;90.87;100350.56;4927594;29;20031;-73
2022/06/01 05:36:24;;;;;;;9.90;2.78;;;;;;;6.57;90.50;100346.53;4907346;29;20046;-74
2022/06/01 05:38:50;;;;;;;3.58;2.05;;;;;;;6.73;89.46;100353.09;4929845;29;20043;-73
2022/06/01 05:41:16;;;;;;;4.50;2.00;;;;;;;6.92;89.70;100346.41;4915267;29;20094;-74
2022/06/01 05:43:42;;;;;;;1.42;1.33;;;;;;;7.11;88.56;100349.72;4936254;29;20058;-71
2022/06/01 05:46:07;;;;;;;1.80;1.70;;;;;;;7.33;88.40;100359.91;4931713;29;20038;-73
2022/06/01 05:48:35;;;;;;;1.65;1.40;;;;;;;7.51;87.24;100359.66;4944803;29;20035;-73
2022/06/01 05:51:01;;;;;;;3.05;1.15;;;;;;;7.65;86.37;100357.44;4928497;29;20027;-73
2022/06/01 05:53:27;;;;;;;1.65;1.15;;;;;;;7.79;86.19;100357.09;4913097;29;20027;-72
2022/06/01 05:55:54;;;;;;;1.40;1.20;;;;;;;7.83;84.95;100353.59;4898166;29;20035;-73
2022/06/01 05:58:29;;;;;;;2.25;1.85;;;;;;;8.00;84.65;100366.38;4891954;29;20126;-73
2022/06/01 06:01:03;;;;;;;2.40;1.17;;;;;;;8.09;84.51;100350.41;4936674;29;20071;-75
2022/06/01 06:03:29;;;;;;;1.33;1.20;;;;;;;8.20;83.94;100347.59;4932228;29;20491;-76
2022/06/01 06:08:51;;;;;;;1.27;1.13;;;;;;;8.52;82.81;100363.28;4915595;29;20095;-75
2022/06/01 06:11:18;;;;;;;1.10;0.90;;;;;;;8.68;82.04;100364.28;4936046;29;20087;-74
2022/06/01 06:13:44;;;;;;;3.05;1.10;;;;;;;8.83;81.43;100373.72;4905271;29;20039;-72
2022/06/01 06:16:10;;;;;;;3.78;1.00;;;;;;;8.87;81.23;100372.94;4939165;29;20123;-74
2022/06/01 06:18:36;;;;;;;1.77;1.10;;;;;;;8.88;81.52;100373.78;4932159;29;20020;-72
2022/06/01 06:21:01;;;;;;;3.55;1.75;;;;;;;8.98;81.11;100382.09;4942316;29;20051;-73
2022/06/01 06:23:27;;;;;;;4.63;2.25;;;;;;;9.04;80.76;100372.06;4930495;29;20114;-74
2022/06/01 06:25:54;;;;;;;2.40;1.85;;;;;;;9.17;80.29;100377.09;4892035;29;20043;-76
2022/06/01 06:29:01;;;;;;;1.65;1.15;;;;;;;9.30;80.01;100369.56;4898953;29;20063;-74
2022/06/01 06:31:26;;;;;;;2.65;1.25;;;;;;;9.38;80.34;100372.66;4929809;29;20083;-75
2022/06/01 06:33:54;;;;;;;5.78;1.60;;;;;;;9.63;79.64;100381.31;4887714;29;20569;-74
2022/06/01 06:36:20;;;;;;;3.40;1.67;;;;;;;9.59;79.13;100372.81;4919100;29;20028;-75
2022/06/01 06:38:46;;;;;;;4.65;2.53;;;;;;;9.70;79.28;100379.19;4914855;29;20042;-75
2022/06/01 06:41:12;;;;;;;4.10;1.98;;;;;;;9.83;79.54;100386.09;4910816;29;20036;-74
2022/06/01 06:43:38;;;;;;;2.72;1.73;;;;;;;9.93;79.60;100391.66;4936160;29;20020;-74
2022/06/01 06:46:08;;;;;;;1.17;0.98;;;;;;;10.12;79.50;100392.88;4939471;29;20098;-76
2022/06/01 06:48:34;;;;;;;1.77;1.17;;;;;;;10.35;78.85;100395.47;4930456;29;20059;-74
2022/06/01 06:51:39;;;;;;;2.28;1.80;;;;;;;10.57;78.58;100400.78;4918996;29;20031;-74
2022/06/01 06:54:33;;;;;;;7.35;1.90;;;;;;;10.73;78.21;100404.41;4918566;29;20040;-74
2022/06/01 06:57:01;;;;;;;1.67;1.35;;;;;;;10.94;77.73;100406.13;4935485;29;20027;-73
2022/06/01 06:59:33;;;;;;;2.97;1.90;;;;;;;11.06;77.42;100416.03;4930142;29;20111;-73
2022/06/01 07:02:01;;;;;;;7.45;1.95;;;;;;;11.07;77.73;100409.44;4920172;29;20054;-73
2022/06/01 07:04:27;;;;;;;5.13;2.42;;;;;;;11.22;78.09;100425.09;4902795;29;20022;-74
2022/06/01 07:07:05;;;;;;;;;;;;;;;;;;;;;
2022/06/01 07:09:33;;;;;;;5.03;1.40;;;;;;;11.33;77.04;100408.41;4903871;29;20035;-75
2022/06/01 07:12:04;;;;;;;4.07;1.70;;;;;;;11.51;76.89;100412.53;4898545;29;20040;-73
2022/06/01 07:14:32;;;;;;;1.20;1.10;;;;;;;11.69;76.74;100418.56;4913875;29;20072;-73
2022/06/01 07:17:04;;;;;;;6.15;1.67;;;;;;;11.96;75.94;100434.78;4931593;29;20406;-73
2022/06/01 07:19:29;;;;;;;5.68;1.70;;;;;;;12.14;74.63;100435.31;4929933;29;20032;-73
2022/06/01 07:21:55;;;;;;;4.32;1.70;;;;;;;12.19;74.65;100448.97;4900656;29;20123;-74
2022/06/01 07:24:24;;;;;;;1.52;1.35;;;;;;;12.26;73.73;100430.34;4921935;29;20024;-74
2022/06/01 07:26:49;;;;;;;2.10;1.55;;;;;;;12.46;72.69;100445.94;4921083;29;20051;-74
2022/06/01 07:29:18;;;;;;;1.90;1.52;;;;;;;12.71;72.10;100456.00;4923308;29;20036;-74
2022/06/01 07:31:45;;;;;;;2.08;1.70;;;;;;;13.20;70.73;100450.84;4925002;29;20040;-74
2022/06/01 07:34:11;;;;;;;3.80;1.90;;;;;;;13.98;68.84;100451.97;4915379;29;20100;-73
2022/06/01 07:36:38;;;;;;;1.17;1.08;;;;;;;14.86;67.04;100453.88;4909156;29;20032;-73
2022/06/01 07:45:09;;;;;;;2.42;1.58;;;;;;;14.97;63.63;100460.88;4922399;29;20099;-73
2022/06/01 07:47:34;;;;;;;4.80;1.55;;;;;;;14.72;64.46;100451.81;4895209;29;20052;-73
2022/06/01 07:50:00;;;;;;;4.65;1.80;;;;;;;14.33;64.68;100441.75;4906429;29;20036;-74
2022/06/01 07:52:25;;;;;;;4.68;1.45;;;;;;;14.27;65.95;100451.19;4915519;29;20084;-75
2022/06/01 07:54:54;;;;;;;1.50;1.35;;;;;;;14.17;64.78;100443.84;4939769;29;20035;-73
2022/06/01 07:57:19;;;;;;;4.13;1.50;;;;;;;14.25;64.85;100442.38;4937751;28;20633;-74
2022/06/01 08:00:10;;;;;;;2.95;1.00;;;;;;;14.86;63.48;100451.13;4896111;29;20038;-74
2022/06/01 08:02:38;;;;;;;2.28;1.00;;;;;;;15.47;61.56;100453.03;4913388;29;20055;-74
2022/06/01 08:05:05;;;;;;;2.15;0.80;;;;;;;16.30;60.42;100449.78;4922430;29;20162;-73
2022/06/01 08:07:31;;;;;;;2.10;0.80;;;;;;;17.07;57.77;100461.28;4887785;29;20074;-76
2022/06/01 08:09:56;;;;;;;2.08;0.57;;;;;;;17.82;55.67;100453.50;4942689;29;20035;-73
2022/06/01 08:15:09;;;;;;;1.05;0.50;;;;;;;19.21;49.98;100441.44;4933453;29;20066;-74
2022/06/01 08:17:38;;;;;;;1.33;0.52;;;;;;;19.23;48.35;100444.72;4929087;29;20055;-73
2022/06/01 08:20:07;;;;;;;2.47;0.73;;;;;;;18.47;45.73;100456.81;4931844;29;20051;-74
2022/06/01 08:22:32;;;;;;;1.20;0.50;;;;;;;17.93;48.05;100457.69;4916111;29;20474;-76
2022/06/01 08:24:58;;;;;;;4.50;0.90;;;;;;;18.35;48.95;100449.13;4929742;29;20078;-75
2022/06/01 08:27:23;;;;;;;1.67;0.47;;;;;;;18.54;47.94;100457.19;4901010;29;20046;-74
2022/06/01 08:29:49;;;;;;;1.58;0.50;;;;;;;18.29;48.58;100453.97;4903669;29;20039;-74
2022/06/01 08:32:14;;;;;;;1.17;0.50;;;;;;;17.88;49.01;100459.72;4945026;29;20494;-74
2022/06/01 08:34:40;;;;;;;1.77;0.50;;;;;;;17.40;50.18;100459.16;4932653;29;20031;-73
2022/06/01 08:37:06;;;;;;;0.88;0.57;;;;;;;16.89;50.88;100452.81;4933869;29;20059;-73
2022/06/01 08:39:40;;;;;;;1.15;0.50;;;;;;;16.81;51.64;100453.50;4934638;29;20038;-75
2022/06/01 08:42:12;;;;;;;0.90;0.60;;;;;;;16.46;51.14;100458.59;4918873;29;20475;-75
2022/06/01 08:44:40;;;;;;;0.85;0.47;;;;;;;16.17;51.77;100461.59;4950998;29;20027;-75
2022/06/01 08:47:16;;;;;;;1.17;0.50;;;;;;;16.40;52.35;100468.91;4947732;29;20486;-75
2022/06/01 08:49:42;;;;;;;1.15;0.45;;;;;;;16.61;50.17;100471.28;4938902;29;20035;-75
2022/06/01 08:52:08;;;;;;;0.80;0.45;;;;;;;16.79;49.12;100464.00;4907869;29;20036;-73
2022/06/01 08:54:37;;;;;;;2.63;0.50;;;;;;;17.43;47.98;100471.53;4941185;29;20292;-74
2022/06/01 08:57:15;;;;;;;0.63;0.47;;;;;;;17.79;46.99;100465.19;4922531;29;20044;-73
2022/06/01 08:59:55;;;;;;;1.63;0.45;;;;;;;17.45;46.24;100469.31;4941335;29;20069;-73
2022/06/01 09:02:36;;;;;;;1.20;0.38;;;;;;;17.23;47.68;100473.63;4950350;29;20031;-74
2022/06/01 09:05:37;;;;;;;1.00;0.17;;;;;;;16.99;48.09;100475.81;4949400;29;20047;-73
2022/06/01 09:08:54;;;;;;;0.20;0.20;;;;;;;16.95;48.05;100474.78;4959351;29;20043;-73
2022/06/01 09:11:34;;;;;;;1.48;0.43;;;;;;;17.53;47.40;100479.59;4931042;29;20067;-74
2022/06/01 09:14:47;;;;;;;0.55;0.40;;;;;;;17.80;46.41;100480.66;4946551;29;20032;-75
2022/06/01 09:17:57;;;;;;;0.60;0.30;;;;;;;18.30;46.00;100477.75;4925671;29;20040;-73
2022/06/01 09:27:35;;;;;;;1.30;0.43;;;;;;;18.81;45.24;100467.25;4873377;29;20110;-74
2022/06/01 09:30:26;;;;;;;0.73;0.30;;;;;;;19.70;44.31;100480.94;4929241;29;20055;-74
2022/06/01 09:33:16;;;;;;;0.38;0.35;;;;;;;20.48;42.81;100479.22;4898112;29;20021;-74
2022/06/01 09:36:24;;;;;;;1.33;0.57;;;;;;;20.60;39.61;100478.50;4914696;29;20145;-75
2022/06/01 09:38:55;;;;;;;2.65;0.30;;;;;;;20.62;37.44;100481.78;4903238;29;20032;-73
2022/06/01 09:41:36;;;;;;;0.35;0.22;;;;;;;20.98;38.96;100488.84;4906605;29;20807;-73
2022/06/01 09:44:07;;;;;;;0.60;0.30;;;;;;;21.75;37.70;100477.53;4922371;29;20019;-72
2022/06/01 09:46:48;;;;;;;0.40;0.30;;;;;;;22.54;36.63;100478.75;4904837;29;20043;-72
2022/06/01 09:49:32;;;;;;;0.52;0.30;;;;;;;23.22;35.87;100491.31;4916482;29;20052;-73
2022/06/01 09:52:07;;;;;;;3.45;0.40;;;;;;;23.18;34.91;100492.03;4921253;29;20451;-73
2022/06/01 09:54:37;;;;;;;1.08;0.40;;;;;;;23.02;35.54;100493.88;4927744;29;20035;-73
2022/06/01 09:57:32;;;;;;;0.63;0.30;;;;;;;23.27;36.44;100488.31;4935602;28;20749;-74
2022/06/01 10:08:22;;;;;;;;;;;;;;;22.16;34.87;100502.06;4943946;29;20060;-74
2022/06/01 10:11:06;;;;;;;0.43;0.22;;;;;;;22.02;35.51;100508.75;4951792;29;19910;-71
2022/06/01 10:13:38;;;;;;;0.30;0.30;;;;;;;21.69;35.48;100501.16;4925402;29;20024;-73
2022/06/01 10:16:12;;;;;;;0.43;0.20;;;;;;;21.45;36.40;100508.19;4923469;29;20043;-73
2022/06/01 10:18:40;;;;;;;0.30;0.30;;;;;;;22.69;35.98;100514.28;4941769;29;20038;-73
2022/06/01 10:21:09;;;;;;;0.20;0.20;;;;;;;25.14;32.50;100506.63;4926022;29;20031;-72
2022/06/01 10:23:39;;;;;;;0.50;0.20;;;;;;;25.16;32.39;100499.50;4923571;29;20023;-73
2022/06/01 10:26:39;;;;;;;0.70;0.20;;;;;;;24.67;32.65;100509.06;4925662;29;20092;-73
2022/06/01 10:29:42;;;;;;;0.30;0.30;;;;;;;23.81;34.03;100501.09;4942280;29;20082;-73
2022/06/01 10:32:19;;;;;;;2.17;0.30;;;;;;;23.06;31.63;100489.22;4902000;29;20103;-73
2022/06/01 10:35:01;;;;;;;0.20;0.20;;;;;;;24.12;32.45;100505.97;4953913;29;20046;-73
2022/06/01 10:37:38;;;;;;;1.10;0.40;;;;;;;24.79;29.82;100516.56;4953008;29;20042;-73
2022/06/01 10:40:06;;;;;;;0.28;0.28;;;;;;;23.94;30.92;100516.66;4941118;29;20031;-73
2022/06/01 10:45:30;;;;;;;0.30;0.30;;;;;;;22.07;34.19;100516.88;4942792;29;20044;-73
2022/06/01 10:48:35;;;;;;;0.50;0.40;;;;;;;21.20;35.64;100518.34;4943280;29;20038;-74
2022/06/01 10:51:17;;;;;;;0.57;0.30;;;;;;;20.38;37.02;100524.00;4922321;29;20016;-71
2022/06/01 10:54:05;;;;;;;1.77;0.47;;;;;;;20.01;37.85;100524.38;4928130;28;20078;-73
2022/06/01 10:56:49;;;;;;;;;;;;;;;;;;;;;
2022/06/01 10:59:50;;;;;;;2.25;0.30;;;;;;;20.09;38.44;100505.28;4918982;29;20146;-74
2022/06/01 11:03:14;;;;;;;;;;;;;;;;;;;;;
2022/06/01 11:06:37;;;;;;;;;;;;;;;;;;;;;
2022/06/01 11:13:03;;;;;;;;;;;;;;;;;;;;;
2022/06/01 11:17:19;;;;;;;;;;;;;;;;;;;;;
2022/06/01 11:20:15;;;;;;;3.88;0.40;;;;;;;28.16;27.67;100533.69;4894223;29;20039;-73
2022/06/01 11:22:54;;;;;;;0.80;0.40;;;;;;;27.66;26.70;100534.66;4945489;29;20079;-73
2022/06/01 11:25:35;;;;;;;0.43;0.43;;;;;;;27.29;27.02;100534.47;4936369;29;20039;-72
2022/06/01 11:28:22;;;;;;;1.08;0.43;;;;;;;26.82;28.50;100542.97;4937356;29;20479;-74
2022/06/01 11:31:00;;;;;;;1.77;0.40;;;;;;;26.80;28.98;100536.09;4941154;29;20015;-73
2022/06/01 11:33:54;;;;;;;1.77;0.60;;;;;;;28.28;28.42;100538.22;4947064;29;20019;-75
2022/06/01 11:40:25;;;;;;;0.35;0.30;;;;;;;32.93;24.58;100550.38;4929849;29;20036;-72
2022/06/01 11:43:27;;;;;;;1.30;0.20;;;;;;;34.91;22.20;100543.16;4916379;29;20036;-74
2022/06/01 11:46:46;;;;;;;0.63;0.20;;;;;;;34.27;22.80;100550.59;4934603;29;20040;-74
2022/06/01 11:49:40;;;;;;;;;;;;;;;;;;;;;
2022/06/01 11:52:39;;;;;;;;;;;;;;;;;;;;;
2022/06/01 12:03:09;;;;;;;;;;;;;;;;;;;;;
2022/06/01 12:06:07;;;;;;;1.67;0.38;;;;;;;25.38;28.30;100519.63;4856049;29;20116;-75
2022/06/01 12:08:57;;;;;;;0.50;0.40;;;;;;;24.95;28.53;100535.34;4840997;29;20041;-73
2022/06/01 12:11:41;;;;;;;0.52;0.30;;;;;;;24.61;29.52;100532.09;4926732;29;20051;-72
2022/06/01 12:14:36;;;;;;;;;;;;;;;25.31;29.74;100542.63;4927786;29;20424;-74
2022/06/01 12:17:23;;;;;;;1.95;0.30;;;;;;;32.21;21.66;100557.31;4875004;29;19897;-71
2022/06/01 12:19:49;;;;;;;0.20;0.20;;;;;;;36.75;18.81;100555.72;4931227;29;20027;-73
2022/06/01 12:28:31;;;;;;;1.17;0.43;;;;;;;48.82;9.94;100558.22;4931580;29;19974;-74
2022/06/01 12:31:23;;;;;;;1.08;0.28;;;;;;;49.36;8.41;100557.75;4921757;29;20024;-74
2022/06/01 12:34:07;;;;;;;0.60;0.20;;;;;;;50.51;9.26;100558.44;4929304;29;20051;-75
2022/06/01 12:36:58;;;;;;;0.47;0.30;;;;;;;49.23;7.38;100545.94;4946572;29;20027;-72
2022/06/01 12:39:23;;;;;;;13.35;0.30;;;;;;;43.07;11.10;100543.16;4923658;29;20032;-76
2022/06/01 12:41:53;;;;;;;0.32;0.20;;;;;;;37.99;12.94;100530.00;4929212;29;20027;-74
2022/06/01 12:44:20;;;;;;;1.08;0.40;;;;;;;34.68;15.46;100511.88;4939275;29;20144;-75
2022/06/01 12:46:51;;;;;;;0.40;0.30;;;;;;;33.87;16.97;100522.75;4953918;29;20064;-76
2022/06/01 12:49:41;;;;;;;0.75;0.35;;;;;;;32.88;17.86;100507.16;4945836;29;20050;-75
2022/06/01 12:55:30;;;;;;;0.13;0.13;;;;;;;30.70;19.63;100523.69;4943682;29;20050;-74
2022/06/01 12:58:07;;;;;;;3.95;0.50;;;;;;;33.79;18.41;100504.22;4943074;29;20027;-71
2022/06/01 13:01:09;;;;;;;3.08;0.40;;;;;;;34.72;16.38;100518.31;4914422;29;20036;-72
2022/06/01 13:03:50;;;;;;;2.47;0.52;;;;;;;32.65;17.87;100518.22;4901917;29;20044;-71
2022/06/01 13:06:44;;;;;;;1.00;0.50;;;;;;;33.37;17.92;100528.97;4903683;29;20032;-73
2022/06/01 13:13:23;;;;;;;;;;;;;;;;;;;;;
2022/06/01 13:16:48;;;;;;;;;;;;;;;;;;;;;
2022/06/01 13:19:38;;;;;;;0.35;0.10;;;;;;;49.14;7.50;100549.13;4918011;29;20111;-74
2022/06/01 13:23:05;;;;;;;;;;;;;;;;;;;;;
2022/06/01 13:25:50;;;;;;;;;;;;;;;;;;;;;
2022/06/01 13:29:19;;;;;;;;;;;;;;;;;;;;;
2022/06/01 13:32:07;;;;;;;1.25;0.43;;;;;;;52.32;5.14;100532.56;4861198;29;20118;-74
2022/06/01 13:34:55;;;;;;;0.68;0.22;;;;;;;51.56;6.38;100559.00;4900790;29;20054;-73
2022/06/01 13:41:11;;;;;;;0.35;0.20;;;;;;;51.84;6.52;100553.53;4832202;29;20030;-71
2022/06/01 13:43:55;;;;;;;1.00;0.20;;;;;;;52.66;6.63;100558.16;4880880;29;20517;-72